Airfield :







YOU CAN JOIN US ON...

 
LOGIN :

Register | Disclaimer

   EN    FR    IT 

 









Legend :    VFR   Marginal VFR   IFR   Intensive IFR   Very Intensive IFR
Visi :
Ceiling :
>= 8 km
>= 3000ft
5 to 8 km
1000 to 3000 ft
1500m to 5 km
500 to 1000 ft
800 to 1500m
200 to 500 ft
< 800m
< 200 ft
Symbols :   Thunderstorms  Fog  Heavy snow  Heavy precipitations  Wind > 20 kt






- Airport Elevation : 124 ft
- IATA code : YGV


CYGV - Havre St Pierre

CURRENT METAR :
  • 162100Z AUTO 29013G20KT 9SM CLR M07/M13 A2993 RMK SLP139

EXPIRED METARs :
  • 162000Z AUTO 30014G22KT 9SM CLR M06/M13 A2989 RMK SLP125
  • 161931Z AUTO 29019G28KT 9SM CLR M06/M14 A2988 RMK SLP122
  • 161922Z AUTO 30016G27KT 6SM -SN CLR M06/M13 A2988 RMK SLP122
  • 161910Z AUTO 30020G27KT 9SM CLR M06/M13 A2987 RMK SLP119
  • 161856Z AUTO 30023G30KT 3SM -SN FEW049 M06/M13 A2987 RMK SLP118
  • 161852Z AUTO 30016G28KT 8SM -SN FEW049 M06/M13 A2987 RMK SLP118
  • 161844Z AUTO 30019G30KT 4SM -SN SCT049 M06/M13 A2986 RMK SLP115

TAF TAF CYGV
Valid from the 16 at 20:00 until the 17 at 08:00 UTC


161938Z 1620/1708 30020G30KT P6SM FEW040
TEMPO 1620/1702 5SM BLSN
BECMG 1702/1704 30012G22KT RMK FCST BASED ON AUTO OBS. NXT FCST BY 170200Z



MET'MAP, your aeronautical weather chart ! - Copyright ORBIFLY December 2007 - Disclaimer

ORBIFLY MET'MAP TEAM :

Programming & Development : Alexandra Zaïnal
Concept & Development : Baudouin d'Aumeries
Co-Development & Prog : Marc-Olivier Méhu
Technical & hardware support : Manuel Goepfert

Contact : metmap@orbifly.com




SOURCES & CREDITS :

   NOAA